Time;durP1;ratioP1;P1;durP2;ratioP2;P2;SDS_P1;SDS_P2;PMS_P1;PMS_P2;Temp;Humidity;BMP_temperature;BMP_pressure;BME280_temperature;BME280_humidity;BME280_pressure;Samples;Min_cycle;Max_cycle;Signal;HPM_P1;HPM_P2
2021/05/30 00:01:33;;;;;;;24.58;6.82;;;9.80;99.90;;;;;;5075785;28;20398;-78
2021/05/30 00:04:12;;;;;;;24.50;6.80;;;9.70;99.90;;;;;;5081770;28;20100;-78
2021/05/30 00:07:22;;;;;;;18.48;6.07;;;9.70;99.90;;;;;;5076397;28;20048;-78
2021/05/30 00:10:13;;;;;;;20.88;7.00;;;9.80;99.90;;;;;;5085879;28;20040;-78
2021/05/30 00:12:55;;;;;;;24.55;6.03;;;9.80;99.90;;;;;;5099626;28;20096;-78
2021/05/30 00:16:20;;;;;;;23.13;5.80;;;9.80;99.90;;;;;;5011685;28;20183;-78
2021/05/30 00:22:41;;;;;;;21.77;5.50;;;9.80;99.90;;;;;;4903173;29;20082;-79
2021/05/30 00:26:00;;;;;;;24.92;5.82;;;9.90;99.90;;;;;;4891965;29;20052;-78
2021/05/30 00:29:29;;;;;;;20.55;5.97;;;9.80;99.90;;;;;;4891261;29;20056;-79
2021/05/30 00:36:05;;;;;;;24.13;5.78;;;9.70;99.90;;;;;;4897294;29;20063;-78
2021/05/30 00:38:40;;;;;;;21.60;5.53;;;9.70;99.90;;;;;;4884877;29;20052;-79
2021/05/30 00:41:43;;;;;;;20.08;5.47;;;9.70;99.90;;;;;;4895286;29;20055;-79
2021/05/30 00:44:36;;;;;;;20.27;5.78;;;9.70;99.90;;;;;;4895448;29;20140;-78
2021/05/30 00:47:05;;;;;;;15.82;5.13;;;9.80;99.90;;;;;;4878276;29;20080;-78
2021/05/30 00:49:34;;;;;;;24.52;5.93;;;9.90;99.90;;;;;;4874753;29;20055;-80
2021/05/30 00:52:18;;;;;;;20.38;5.65;;;9.80;99.90;;;;;;4881272;29;20135;-80
2021/05/30 00:54:50;;;;;;;25.00;6.38;;;9.90;99.90;;;;;;4879243;29;20048;-79
2021/05/30 00:57:16;;;;;;;19.52;6.50;;;9.90;99.90;;;;;;4875293;29;20496;-80
2021/05/30 00:59:42;;;;;;;21.20;7.47;;;9.90;99.90;;;;;;4885330;29;20056;-79
2021/05/30 01:02:12;;;;;;;21.30;7.78;;;9.90;99.90;;;;;;4864090;29;20200;-78
2021/05/30 01:04:39;;;;;;;31.48;8.38;;;9.90;99.90;;;;;;4877852;29;20052;-79
2021/05/30 01:07:07;;;;;;;24.13;8.40;;;9.90;99.90;;;;;;4877336;29;20052;-79
2021/05/30 01:09:36;;;;;;;25.38;8.18;;;9.90;99.90;;;;;;4971765;28;20049;-80
2021/05/30 01:12:03;;;;;;;24.40;7.05;;;9.80;99.90;;;;;;4993525;28;20054;-78
2021/05/30 01:14:29;;;;;;;17.70;7.15;;;9.80;99.90;;;;;;5004611;28;20073;-79
2021/05/30 01:16:55;;;;;;;23.33;6.53;;;9.70;99.90;;;;;;5001713;28;20780;-79
2021/05/30 01:19:27;;;;;;;25.40;7.47;;;9.70;99.90;;;;;;5005695;28;20057;-78
2021/05/30 01:21:58;;;;;;;18.23;7.05;;;9.70;99.90;;;;;;5035348;28;20060;-78
2021/05/30 01:24:27;;;;;;;20.52;7.05;;;9.60;99.90;;;;;;5080663;28;20042;-79
2021/05/30 01:27:00;;;;;;;16.40;6.75;;;9.60;99.90;;;;;;5071990;28;20496;-79
2021/05/30 01:29:27;;;;;;;22.77;6.53;;;9.60;99.90;;;;;;5106851;28;20446;-78
2021/05/30 01:32:16;;;;;;;22.23;6.25;;;9.60;99.90;;;;;;5040087;28;20567;-79
2021/05/30 01:37:56;;;;;;;29.50;8.25;;;9.60;99.90;;;;;;5042266;28;20055;-79
2021/05/30 01:40:24;;;;;;;21.98;7.30;;;9.60;99.90;;;;;;5004218;28;20052;-78
2021/05/30 01:42:57;;;;;;;22.33;6.18;;;9.60;99.90;;;;;;5040044;28;20428;-79
2021/05/30 01:45:46;;;;;;;16.88;6.60;;;9.60;99.90;;;;;;5068024;28;20052;-78
2021/05/30 01:48:58;;;;;;;22.40;6.25;;;9.60;99.90;;;;;;5010777;28;20084;-79
2021/05/30 01:52:00;;;;;;;22.77;7.50;;;9.60;99.90;;;;;;5031452;28;20053;-81
2021/05/30 01:55:24;;;;;;;18.63;6.45;;;9.60;99.90;;;;;;4990168;28;20057;-81
2021/05/30 01:58:34;;;;;;;16.25;6.25;;;9.60;99.90;;;;;;4980518;28;20191;-79
2021/05/30 02:01:44;;;;;;;24.90;6.95;;;9.60;99.90;;;;;;5009200;28;20045;-79
2021/05/30 02:04:55;;;;;;;24.83;7.55;;;9.60;99.90;;;;;;5000071;28;20081;-78
2021/05/30 02:08:18;;;;;;;20.90;6.55;;;9.60;99.90;;;;;;4955864;28;20069;-81
2021/05/30 02:11:16;;;;;;;16.52;5.45;;;9.70;99.90;;;;;;4961418;28;20046;-78
2021/05/30 02:14:02;;;;;;;20.25;6.38;;;9.70;99.90;;;;;;4938268;28;21215;-78
2021/05/30 02:16:32;;;;;;;20.33;6.68;;;9.70;99.90;;;;;;4964267;28;20550;-79
2021/05/30 02:18:59;;;;;;;17.63;6.60;;;9.70;99.90;;;;;;4962567;28;20717;-79
2021/05/30 02:21:50;;;;;;;20.83;7.07;;;9.70;99.90;;;;;;4963431;28;20047;-78
2021/05/30 02:24:20;;;;;;;25.40;7.25;;;9.60;99.90;;;;;;4963374;28;20054;-78
2021/05/30 02:26:59;;;;;;;23.55;7.05;;;9.60;99.90;;;;;;5008981;28;20061;-78
2021/05/30 02:29:42;;;;;;;24.67;7.13;;;9.60;99.90;;;;;;4968756;28;20050;-81
2021/05/30 02:32:11;;;;;;;23.48;7.05;;;9.50;99.90;;;;;;4988093;28;20078;-78
2021/05/30 02:34:38;;;;;;;26.33;6.47;;;9.50;99.90;;;;;;5007862;28;20060;-78
2021/05/30 02:37:07;;;;;;;26.65;7.85;;;9.50;99.90;;;;;;5007856;28;20054;-79
2021/05/30 02:40:05;;;;;;;16.60;6.50;;;9.50;99.90;;;;;;4992257;28;20085;-78
2021/05/30 02:45:38;;;;;;;23.55;7.40;;;9.50;99.90;;;;;;4971823;28;20053;-79
2021/05/30 02:49:04;;;;;;;22.08;6.95;;;9.50;99.90;;;;;;4948784;29;20187;-78
2021/05/30 02:58:09;;;;;;;19.33;5.85;;;9.60;99.90;;;;;;4952476;28;20054;-78
2021/05/30 03:01:05;;;;;;;19.88;5.95;;;9.60;99.90;;;;;;4931126;29;20052;-78
2021/05/30 03:03:43;;;;;;;19.65;5.93;;;9.60;99.90;;;;;;4949442;29;20126;-80
2021/05/30 03:06:37;;;;;;;16.98;5.50;;;9.70;99.90;;;;;;4948891;29;20055;-78
2021/05/30 03:09:44;;;;;;;34.25;7.38;;;9.70;99.90;;;;;;4952113;28;20078;-79
2021/05/30 03:12:29;;;;;;;20.17;6.30;;;9.70;99.90;;;;;;4969526;28;20208;-79
2021/05/30 03:15:08;;;;;;;26.73;6.03;;;9.70;99.90;;;;;;5045873;28;20041;-79
2021/05/30 03:17:41;;;;;;;19.98;6.50;;;9.70;99.90;;;;;;5043085;28;20970;-79
2021/05/30 03:20:16;;;;;;;24.85;7.50;;;9.70;99.90;;;;;;5027240;28;20060;-80
2021/05/30 03:22:43;;;;;;;22.15;6.60;;;9.70;99.90;;;;;;5032924;28;20060;-81
2021/05/30 03:25:10;;;;;;;17.20;6.22;;;9.70;99.90;;;;;;5029564;28;20044;-79
2021/05/30 03:27:37;;;;;;;31.15;7.90;;;9.70;99.90;;;;;;5066417;28;20044;-79
2021/05/30 03:30:04;;;;;;;16.90;5.55;;;9.70;99.90;;;;;;5056962;28;20067;-79
2021/05/30 03:32:31;;;;;;;19.55;6.25;;;9.60;99.90;;;;;;5032711;28;20048;-78
2021/05/30 03:34:57;;;;;;;19.52;6.03;;;9.60;99.90;;;;;;5044744;28;20114;-79
2021/05/30 03:37:22;;;;;;;23.10;5.68;;;9.60;99.90;;;;;;5049450;28;20052;-79
2021/05/30 03:39:49;;;;;;;21.98;5.88;;;9.60;99.90;;;;;;5046216;28;20439;-79
2021/05/30 03:42:25;;;;;;;20.10;6.68;;;9.60;99.90;;;;;;5066996;28;20483;-78
2021/05/30 03:44:51;;;;;;;17.08;5.97;;;9.70;99.90;;;;;;5065224;28;20041;-77
2021/05/30 03:47:18;;;;;;;26.02;6.47;;;9.70;99.90;;;;;;5049020;28;20067;-78
2021/05/30 03:49:44;;;;;;;14.13;5.50;;;9.60;99.90;;;;;;5055716;28;20048;-79
2021/05/30 03:52:10;;;;;;;17.02;6.28;;;9.60;99.90;;;;;;5055334;28;20043;-78
2021/05/30 03:54:36;;;;;;;23.33;6.70;;;9.70;99.90;;;;;;5053750;28;20076;-79
2021/05/30 03:57:02;;;;;;;21.65;6.07;;;9.70;99.90;;;;;;5069915;28;20040;-77
2021/05/30 03:59:28;;;;;;;22.58;5.70;;;9.70;99.90;;;;;;5062864;28;20067;-78
2021/05/30 04:01:55;;;;;;;20.33;6.03;;;9.60;99.90;;;;;;5056969;28;20130;-78
2021/05/30 04:04:21;;;;;;;17.77;6.03;;;9.70;99.90;;;;;;5076703;28;20072;-77
2021/05/30 04:06:47;;;;;;;24.73;5.68;;;9.70;99.90;;;;;;5087381;28;20130;-80
2021/05/30 04:09:13;;;;;;;29.40;6.43;;;9.70;99.90;;;;;;5070136;28;20548;-78
2021/05/30 04:11:39;;;;;;;21.20;6.30;;;9.80;99.90;;;;;;5061916;28;20447;-77
2021/05/30 04:14:06;;;;;;;21.90;5.82;;;9.80;99.90;;;;;;5080708;28;20042;-78
2021/05/30 04:16:32;;;;;;;23.10;6.22;;;9.70;99.90;;;;;;5072340;28;20048;-79
2021/05/30 04:18:58;;;;;;;30.67;7.32;;;9.70;99.90;;;;;;5092601;28;20052;-79
2021/05/30 04:21:24;;;;;;;25.15;8.05;;;9.70;99.90;;;;;;5090038;28;20059;-79
2021/05/30 04:23:49;;;;;;;19.45;6.13;;;9.60;99.90;;;;;;5078556;28;20048;-79
2021/05/30 04:26:15;;;;;;;24.08;8.25;;;9.70;99.90;;;;;;5071076;28;20044;-79
2021/05/30 04:28:42;;;;;;;22.85;7.88;;;9.70;99.90;;;;;;5057293;28;20069;-78
2021/05/30 04:31:08;;;;;;;25.60;8.00;;;9.70;99.90;;;;;;5072599;28;20035;-79
2021/05/30 04:33:34;;;;;;;30.73;8.35;;;9.80;99.90;;;;;;5096163;28;20032;-78
2021/05/30 04:36:00;;;;;;;25.42;8.07;;;9.80;99.90;;;;;;5069759;28;20044;-80
2021/05/30 04:38:26;;;;;;;20.98;7.18;;;9.80;99.90;;;;;;5066908;28;20046;-78
2021/05/30 04:41:00;;;;;;;18.33;6.55;;;9.90;99.90;;;;;;5085708;28;20101;-78
2021/05/30 04:43:28;;;;;;;29.17;9.25;;;9.90;99.90;;;;;;5103889;28;20052;-78
2021/05/30 04:46:02;;;;;;;29.17;9.05;;;9.90;99.90;;;;;;5077282;28;20048;-78
2021/05/30 04:48:28;;;;;;;23.77;8.25;;;10.00;99.90;;;;;;5106950;28;20407;-78
2021/05/30 04:51:05;;;;;;;30.40;10.02;;;10.00;99.90;;;;;;5080715;28;20031;-78
2021/05/30 04:53:46;;;;;;;31.98;10.63;;;10.00;99.90;;;;;;5058941;28;20079;-78
2021/05/30 04:56:19;;;;;;;26.20;10.20;;;10.00;99.90;;;;;;5102769;28;20112;-79
2021/05/30 04:58:52;;;;;;;22.63;10.52;;;9.90;99.90;;;;;;5070285;28;20082;-81
2021/05/30 05:01:27;;;;;;;26.30;10.18;;;9.90;99.90;;;;;;5092590;28;20054;-78
2021/05/30 05:03:54;;;;;;;33.47;10.45;;;9.80;99.90;;;;;;5089307;28;20051;-78
2021/05/30 05:06:20;;;;;;;24.25;10.27;;;9.90;99.90;;;;;;5095572;28;20051;-79
2021/05/30 05:08:48;;;;;;;31.48;10.43;;;10.00;99.90;;;;;;5075442;28;20096;-79
2021/05/30 05:11:13;;;;;;;25.13;8.60;;;10.00;99.90;;;;;;5088586;28;20044;-77
2021/05/30 05:13:39;;;;;;;24.35;8.35;;;10.00;99.90;;;;;;5091183;28;20040;-78
2021/05/30 05:16:05;;;;;;;21.88;7.57;;;9.90;99.90;;;;;;5055972;28;20460;-79
2021/05/30 05:18:32;;;;;;;22.33;7.22;;;10.00;99.90;;;;;;5056804;28;20055;-80
2021/05/30 05:20:59;;;;;;;17.20;6.82;;;9.90;99.90;;;;;;5091355;28;20083;-78
2021/05/30 05:23:26;;;;;;;15.57;6.75;;;9.90;99.90;;;;;;5062898;28;20433;-78
2021/05/30 05:25:53;;;;;;;25.00;6.43;;;9.90;99.90;;;;;;5096302;28;20523;-81
2021/05/30 05:28:21;;;;;;;21.50;6.22;;;10.00;99.90;;;;;;5089037;28;20050;-78
2021/05/30 05:30:47;;;;;;;24.73;7.15;;;9.90;99.90;;;;;;5080927;28;20040;-78
2021/05/30 05:33:13;;;;;;;21.25;6.35;;;9.90;99.90;;;;;;5092714;28;20105;-79
2021/05/30 05:35:39;;;;;;;17.05;6.05;;;9.90;99.90;;;;;;5082800;28;20048;-79
2021/05/30 05:38:05;;;;;;;22.98;6.57;;;9.90;99.90;;;;;;5091102;28;20141;-78
2021/05/30 05:40:33;;;;;;;16.42;6.97;;;10.00;99.90;;;;;;5074694;28;20113;-78
2021/05/30 05:43:10;;;;;;;25.30;7.15;;;10.10;99.90;;;;;;5071926;28;20078;-78
2021/05/30 05:46:01;;;;;;;22.13;6.40;;;10.20;99.90;;;;;;5057957;28;20045;-78
2021/05/30 05:48:34;;;;;;;22.17;6.32;;;10.20;99.90;;;;;;5051699;28;20555;-79
2021/05/30 05:51:17;;;;;;;16.15;6.03;;;10.20;99.90;;;;;;5037632;28;20508;-79
2021/05/30 05:53:54;;;;;;;15.65;6.28;;;10.30;99.90;;;;;;5052940;28;20056;-81
2021/05/30 05:59:18;;;;;;;20.13;6.90;;;10.40;99.90;;;;;;5048229;28;20053;-79
2021/05/30 06:01:49;;;;;;;16.42;6.43;;;10.30;99.90;;;;;;5030669;28;20136;-79
2021/05/30 06:04:15;;;;;;;19.92;5.57;;;10.30;99.90;;;;;;5082895;28;20113;-78
2021/05/30 06:06:43;;;;;;;19.55;5.70;;;10.40;99.90;;;;;;5073603;28;20043;-78
2021/05/30 06:09:15;;;;;;;20.55;6.32;;;10.40;99.90;;;;;;5094506;28;20980;-78
2021/05/30 06:11:48;;;;;;;20.85;6.20;;;10.40;99.90;;;;;;5101168;28;20063;-79
2021/05/30 06:14:17;;;;;;;17.80;6.10;;;10.50;99.90;;;;;;5073432;28;20696;-79
2021/05/30 06:16:52;;;;;;;21.42;6.53;;;10.50;99.90;;;;;;5079976;28;20201;-80
2021/05/30 06:19:19;;;;;;;17.75;6.40;;;10.50;99.90;;;;;;5088677;28;20039;-79
2021/05/30 06:21:45;;;;;;;17.27;6.07;;;10.50;99.90;;;;;;5072145;28;20487;-79
2021/05/30 06:24:17;;;;;;;25.23;6.53;;;10.50;99.90;;;;;;5086841;28;20040;-79
2021/05/30 06:26:44;;;;;;;22.27;6.25;;;10.50;99.90;;;;;;5109039;28;20040;-78
2021/05/30 06:29:20;;;;;;;28.45;6.68;;;10.50;99.90;;;;;;5060831;28;20221;-79
2021/05/30 06:31:46;;;;;;;14.30;5.88;;;10.40;99.90;;;;;;5101992;28;20479;-79
2021/05/30 06:34:57;;;;;;;13.50;5.28;;;10.40;99.90;;;;;;5079122;28;20655;-78
2021/05/30 06:37:33;;;;;;;22.55;6.30;;;10.40;99.90;;;;;;5090815;28;20136;-78
2021/05/30 06:40:01;;;;;;;24.23;7.18;;;10.60;99.90;;;;;;5068136;28;20047;-78
2021/05/30 06:42:38;;;;;;;17.40;4.97;;;10.50;99.90;;;;;;5076379;28;20043;-78
2021/05/30 06:45:08;;;;;;;25.20;7.07;;;10.60;99.90;;;;;;5078556;28;20092;-78
2021/05/30 06:47:35;;;;;;;17.40;5.53;;;10.70;99.90;;;;;;5059103;28;20055;-78
2021/05/30 06:50:14;;;;;;;20.25;5.28;;;10.70;99.90;;;;;;5091921;28;20050;-78
2021/05/30 06:52:48;;;;;;;19.20;5.65;;;10.80;99.90;;;;;;5071342;28;20546;-78
2021/05/30 06:55:20;;;;;;;19.42;5.22;;;10.80;99.90;;;;;;5057863;28;20047;-78
2021/05/30 06:57:46;;;;;;;14.73;5.35;;;10.90;99.90;;;;;;5105566;28;20426;-78
2021/05/30 07:00:16;;;;;;;19.02;6.55;;;11.00;99.90;;;;;;5088623;28;20037;-78
2021/05/30 07:02:42;;;;;;;23.50;5.82;;;11.10;99.90;;;;;;5100886;28;20032;-79
2021/05/30 07:05:09;;;;;;;19.27;5.78;;;11.10;99.90;;;;;;5071033;28;20051;-78
2021/05/30 07:07:35;;;;;;;16.23;5.10;;;11.20;99.90;;;;;;5062436;28;20043;-79
2021/05/30 07:10:01;;;;;;;16.52;4.90;;;11.20;99.90;;;;;;5078377;28;20522;-79
2021/05/30 07:12:27;;;;;;;14.00;5.22;;;11.20;99.90;;;;;;5089633;28;20040;-78
2021/05/30 07:14:53;;;;;;;24.13;5.40;;;11.20;99.90;;;;;;5077313;28;20080;-78
2021/05/30 07:17:27;;;;;;;12.65;4.63;;;11.20;99.90;;;;;;5105597;28;20040;-79
2021/05/30 07:20:21;;;;;;;18.27;4.97;;;11.10;99.90;;;;;;5024843;28;20103;-78
2021/05/30 07:23:06;;;;;;;14.23;4.63;;;11.20;99.90;;;;;;5018018;28;20183;-78
2021/05/30 07:25:32;;;;;;;18.23;5.07;;;11.20;99.90;;;;;;5028291;28;20052;-78
2021/05/30 07:28:01;;;;;;;15.93;4.95;;;11.40;99.90;;;;;;5015340;28;20603;-79
2021/05/30 07:30:27;;;;;;;17.75;4.95;;;11.40;99.90;;;;;;5018529;28;20064;-80
2021/05/30 07:33:21;;;;;;;12.48;4.45;;;11.40;99.90;;;;;;5000479;28;20057;-78
2021/05/30 07:35:56;;;;;;;26.42;5.10;;;11.30;99.90;;;;;;5007129;28;20049;-81
2021/05/30 07:38:25;;;;;;;18.48;5.03;;;11.30;99.90;;;;;;4998019;28;20051;-79
2021/05/30 07:40:52;;;;;;;18.88;4.85;;;11.30;99.90;;;;;;5008238;28;20425;-78
2021/05/30 07:43:19;;;;;;;18.60;5.50;;;11.20;99.90;;;;;;5014852;28;20037;-78
2021/05/30 07:45:47;;;;;;;15.85;4.53;;;11.30;99.90;;;;;;5016191;28;20129;-79
2021/05/30 07:48:34;;;;;;;13.55;4.38;;;11.20;99.90;;;;;;5039981;28;20065;-79
2021/05/30 07:51:07;;;;;;;14.57;4.30;;;11.30;99.90;;;;;;5067872;28;20055;-79
2021/05/30 07:53:54;;;;;;;15.48;4.80;;;11.30;99.90;;;;;;5090260;28;20036;-79
2021/05/30 07:56:44;;;;;;;20.80;5.72;;;11.30;99.90;;;;;;5067694;28;20047;-78
2021/05/30 07:59:20;;;;;;;12.98;4.05;;;11.40;99.90;;;;;;5106413;28;20087;-79
2021/05/30 08:01:48;;;;;;;17.08;3.35;;;11.40;99.90;;;;;;5086841;28;20461;-78
2021/05/30 08:04:29;;;;;;;12.68;3.95;;;11.40;99.90;;;;;;5085714;28;20112;-79
2021/05/30 08:06:57;;;;;;;18.45;4.13;;;11.30;99.90;;;;;;5056701;28;20059;-80
2021/05/30 08:09:23;;;;;;;17.20;4.32;;;11.40;99.90;;;;;;5081856;28;20042;-80
2021/05/30 08:11:58;;;;;;;24.90;5.60;;;11.30;99.90;;;;;;5055104;28;20047;-80
2021/05/30 08:18:17;;;;;;;16.98;5.00;;;11.40;99.90;;;;;;5088451;28;20097;-80
2021/05/30 08:21:11;;;;;;;16.15;4.78;;;11.50;99.90;;;;;;5042176;28;20045;-80
2021/05/30 08:24:20;;;;;;;14.55;4.53;;;11.40;99.90;;;;;;5040301;28;20106;-80
2021/05/30 08:27:24;;;;;;;12.68;5.07;;;11.50;99.90;;;;;;5026985;28;20048;-83
2021/05/30 08:30:18;;;;;;;14.57;4.93;;;11.50;99.90;;;;;;4931528;29;20574;-81
2021/05/30 08:33:34;;;;;;;11.82;4.82;;;11.50;99.90;;;;;;4930102;29;20043;-80
2021/05/30 08:36:38;;;;;;;12.73;5.22;;;11.70;99.90;;;;;;4886616;29;20059;-81
2021/05/30 08:40:25;;;;;;;16.65;4.80;;;11.60;99.90;;;;;;4883596;29;20437;-81
2021/05/30 08:43:20;;;;;;;18.08;4.97;;;11.50;99.90;;;;;;4848926;29;20061;-83
2021/05/30 08:45:53;;;;;;;15.95;5.53;;;11.60;99.90;;;;;;4893912;29;20048;-80
2021/05/30 08:49:25;;;;;;;16.13;5.00;;;11.60;99.90;;;;;;4882214;29;20056;-80
2021/05/30 08:55:39;;;;;;;10.50;5.47;;;11.60;99.90;;;;;;4849398;29;20046;-80
2021/05/30 08:58:45;;;;;;;12.63;4.93;;;11.70;99.90;;;;;;4887214;29;20614;-80
2021/05/30 09:02:16;;;;;;;20.73;5.57;;;11.70;99.90;;;;;;4853843;29;20045;-80
2021/05/30 09:05:26;;;;;;;16.20;6.13;;;11.90;99.90;;;;;;4889623;29;20119;-81
2021/05/30 09:09:00;;;;;;;16.77;6.07;;;11.90;99.90;;;;;;4851606;29;20062;-80
2021/05/30 09:12:10;;;;;;;11.68;5.65;;;11.90;99.90;;;;;;4838324;29;20266;-80
2021/05/30 09:19:21;;;;;;;17.67;5.38;;;12.00;99.90;;;;;;4828905;29;20050;-80
2021/05/30 09:22:58;;;;;;;20.75;4.78;;;12.10;99.90;;;;;;4868610;29;20109;-81
2021/05/30 09:26:14;;;;;;;18.48;5.55;;;12.30;99.90;;;;;;4875366;29;20047;-80
2021/05/30 09:29:35;;;;;;;20.50;5.88;;;12.20;99.90;;;;;;4888613;29;20092;-80
2021/05/30 09:32:47;;;;;;;20.53;5.80;;;12.30;99.90;;;;;;4837445;29;20213;-80
2021/05/30 09:36:06;;;;;;;21.38;5.95;;;12.30;99.90;;;;;;4784007;29;20059;-80
2021/05/30 09:39:51;;;;;;;21.80;4.85;;;12.30;99.90;;;;;;4806158;29;20361;-81
2021/05/30 09:42:21;;;;;;;15.32;5.18;;;12.20;99.90;;;;;;4788166;29;20082;-81
2021/05/30 09:45:39;;;;;;;17.30;4.93;;;12.30;99.90;;;;;;4832611;29;20050;-80
2021/05/30 09:52:39;;;;;;;24.55;7.32;;;12.20;99.90;;;;;;4819159;29;20091;-80
2021/05/30 09:56:12;;;;;;;14.82;4.90;;;12.30;99.90;;;;;;4829123;29;20098;-81
2021/05/30 10:02:58;;;;;;;20.30;5.50;;;12.60;99.90;;;;;;4828560;29;20053;-80
2021/05/30 10:06:03;;;;;;;22.35;5.13;;;12.70;99.90;;;;;;4892849;29;20060;-80
2021/05/30 10:09:35;;;;;;;22.75;6.45;;;12.90;99.90;;;;;;4850393;29;20137;-80
2021/05/30 10:13:03;;;;;;;14.43;5.03;;;12.80;99.90;;;;;;4852830;29;20133;-80
2021/05/30 10:16:30;;;;;;;16.60;4.35;;;12.80;99.90;;;;;;4838204;29;20061;-80
2021/05/30 10:24:08;;;;;;;16.67;4.95;;;12.90;99.90;;;;;;4824614;29;20506;-83
2021/05/30 10:27:48;;;;;;;17.75;4.88;;;12.90;99.90;;;;;;4749873;30;20655;-83
2021/05/30 10:41:52;;;;;;;13.93;4.17;;;12.80;99.90;;;;;;4817693;29;20058;-81
2021/05/30 10:45:39;;;;;;;18.73;4.85;;;13.00;99.90;;;;;;4907306;29;20063;-80
2021/05/30 10:49:38;;;;;;;9.70;3.83;;;12.90;99.90;;;;;;4900759;29;20043;-80
2021/05/30 10:53:29;;;;;;;12.20;4.20;;;13.00;99.90;;;;;;4803316;29;20229;-82
2021/05/30 10:56:55;;;;;;;13.38;4.03;;;13.10;99.90;;;;;;4807874;29;20104;-83
2021/05/30 11:07:34;;;;;;;17.60;4.13;;;13.20;99.90;;;;;;4939341;29;20046;-81
2021/05/30 11:11:17;;;;;;;13.98;3.83;;;13.30;99.90;;;;;;4951669;28;20041;-81
2021/05/30 11:15:30;;;;;;;14.68;4.63;;;13.40;99.90;;;;;;4798635;29;20070;-80
2021/05/30 11:29:52;;;;;;;15.23;3.60;;;13.80;99.90;;;;;;4825739;29;20062;-79
2021/05/30 11:32:40;;;;;;;12.05;3.95;;;14.00;99.90;;;;;;4841151;29;20482;-80
2021/05/30 11:35:32;;;;;;;10.00;4.18;;;14.10;99.90;;;;;;4870148;29;20117;-81
2021/05/30 11:38:09;;;;;;;9.82;3.33;;;14.20;99.90;;;;;;4872261;29;20136;-80
2021/05/30 11:41:20;;;;;;;14.05;3.83;;;14.10;99.90;;;;;;4965877;28;20090;-81
2021/05/30 11:47:37;;;;;;;9.02;3.35;;;13.80;99.90;;;;;;4913526;29;20677;-82
2021/05/30 11:50:03;;;;;;;12.50;4.13;;;13.80;99.90;;;;;;4894219;29;20053;-82
2021/05/30 11:52:34;;;;;;;9.70;3.08;;;13.80;99.90;;;;;;4907436;29;20052;-82
2021/05/30 11:55:15;;;;;;;14.43;4.07;;;13.80;99.90;;;;;;4914628;29;20050;-81
2021/05/30 11:57:41;;;;;;;15.73;3.85;;;13.70;99.90;;;;;;4926323;29;20141;-83
2021/05/30 12:01:02;;;;;;;13.52;3.40;;;13.70;99.90;;;;;;4949173;28;20070;-81
2021/05/30 12:04:23;;;;;;;11.88;3.53;;;13.80;99.90;;;;;;4947719;28;20467;-81
2021/05/30 12:08:05;;;;;;;14.50;3.22;;;13.80;99.90;;;;;;4919635;28;20126;-81
2021/05/30 12:11:20;;;;;;;9.80;2.97;;;13.70;99.90;;;;;;4934183;28;20046;-81
2021/05/30 12:29:36;;;;;;;15.15;3.65;;;14.40;99.90;;;;;;4828753;29;20064;-80
2021/05/30 12:33:15;;;;;;;19.88;4.22;;;14.70;99.90;;;;;;4876948;29;20068;-80
2021/05/30 12:36:57;;;;;;;12.95;3.92;;;14.50;99.90;;;;;;4884169;29;20495;-81
2021/05/30 12:40:27;;;;;;;16.02;3.05;;;14.50;99.90;;;;;;4874578;29;20056;-81
2021/05/30 12:43:57;;;;;;;12.68;2.80;;;14.20;99.90;;;;;;4827798;29;20545;-81
2021/05/30 12:51:12;;;;;;;14.25;3.47;;;14.00;99.90;;;;;;4811945;29;20042;-80
2021/05/30 12:54:26;;;;;;;14.95;3.72;;;14.00;99.90;;;;;;4856563;29;20067;-81
2021/05/30 12:57:23;;;;;;;11.13;3.55;;;14.10;99.90;;;;;;4871100;29;20191;-80
2021/05/30 13:03:53;;;;;;;12.27;3.60;;;14.40;99.90;;;;;;4824948;29;20297;-80
2021/05/30 13:06:58;;;;;;;14.10;3.42;;;14.80;99.90;;;;;;4796229;29;20215;-85
2021/05/30 13:17:22;;;;;;;19.63;3.17;;;14.40;99.90;;;;;;4863719;29;20196;-81
2021/05/30 13:24:19;;;;;;;10.88;3.55;;;14.50;99.90;;;;;;4827414;29;20052;-81
2021/05/30 13:31:26;;;;;;;10.82;3.40;;;14.80;99.90;;;;;;4806143;29;20057;-81
2021/05/30 13:34:56;;;;;;;13.73;3.55;;;14.40;99.90;;;;;;4821286;29;20080;-81
2021/05/30 13:38:38;;;;;;;10.55;3.45;;;14.50;99.90;;;;;;4915591;29;20208;-81
2021/05/30 13:45:10;;;;;;;13.80;4.22;;;14.20;99.90;;;;;;4950132;28;20102;-81
2021/05/30 13:51:49;;;;;;;10.30;2.78;;;14.00;99.90;;;;;;4923762;29;20151;-84
2021/05/30 13:54:39;;;;;;;15.20;3.60;;;13.90;99.90;;;;;;4912028;29;20067;-82
2021/05/30 14:04:56;;;;;;;14.93;3.72;;;14.40;99.90;;;;;;4816827;29;20046;-80
2021/05/30 14:08:24;;;;;;;13.98;3.70;;;14.60;99.90;;;;;;4819270;29;20070;-80
2021/05/30 14:11:28;;;;;;;16.45;3.45;;;14.50;99.90;;;;;;4765856;29;20054;-81
2021/05/30 14:25:22;;;;;;;19.17;3.78;;;14.40;99.90;;;;;;4764331;30;20056;-82
2021/05/30 14:27:55;;;;;;;18.90;4.05;;;14.50;99.90;;;;;;4775514;29;20054;-81
2021/05/30 14:30:52;;;;;;;19.10;4.22;;;14.60;99.90;;;;;;4799407;29;20088;-82
2021/05/30 14:33:29;;;;;;;18.90;4.07;;;14.50;99.90;;;;;;4787878;29;20075;-83
2021/05/30 14:36:43;;;;;;;12.77;3.28;;;14.30;99.90;;;;;;4815061;29;20102;-81
2021/05/30 14:39:36;;;;;;;9.15;2.95;;;14.40;99.90;;;;;;4818602;29;20078;-82
2021/05/30 14:42:24;;;;;;;13.90;2.88;;;14.80;99.90;;;;;;4821049;29;20464;-80
2021/05/30 14:45:11;;;;;;;10.43;3.05;;;14.70;99.90;;;;;;4843737;29;20117;-80
2021/05/30 14:48:09;;;;;;;13.95;3.05;;;14.60;99.90;;;;;;4816166;29;20053;-81
2021/05/30 14:54:30;;;;;;;17.20;3.45;;;14.60;99.90;;;;;;4931282;28;20103;-81
2021/05/30 14:58:24;;;;;;;10.77;3.55;;;14.60;99.90;;;;;;4884668;29;20060;-82
2021/05/30 15:00:54;;;;;;;9.93;2.90;;;14.80;99.90;;;;;;4845693;29;20061;-80
2021/05/30 15:03:28;;;;;;;11.35;2.92;;;14.90;99.90;;;;;;4841374;29;20663;-81
2021/05/30 15:06:49;;;;;;;14.73;3.08;;;15.20;99.90;;;;;;4845892;29;21349;-80
2021/05/30 15:10:34;;;;;;;9.55;2.67;;;15.10;99.90;;;;;;4868978;29;20105;-83
2021/05/30 15:16:48;;;;;;;13.35;3.25;;;14.90;99.90;;;;;;4868957;29;20043;-80
2021/05/30 15:20:01;;;;;;;10.80;2.92;;;15.40;99.90;;;;;;4876055;29;20535;-83
2021/05/30 15:23:26;;;;;;;9.32;2.53;;;15.50;99.90;;;;;;4872876;29;20055;-81
2021/05/30 15:26:05;;;;;;;9.88;2.85;;;15.40;99.90;;;;;;4873037;29;20060;-80
2021/05/30 15:29:15;;;;;;;11.00;2.67;;;15.80;99.90;;;;;;4907271;29;20114;-82
2021/05/30 15:32:21;;;;;;;10.55;3.10;;;16.40;99.90;;;;;;4928721;28;20051;-81
2021/05/30 15:35:31;;;;;;;15.73;3.38;;;16.10;99.90;;;;;;4928213;29;20140;-81
2021/05/30 15:42:10;;;;;;;10.27;2.67;;;15.90;99.90;;;;;;4922197;29;20130;-80
2021/05/30 15:45:42;;;;;;;11.65;2.72;;;16.00;99.90;;;;;;4948296;29;20117;-81
2021/05/30 15:48:44;;;;;;;8.68;2.85;;;15.90;99.90;;;;;;4871839;29;20052;-83
2021/05/30 15:51:57;;;;;;;13.57;3.05;;;16.10;99.90;;;;;;4857045;29;20450;-81
2021/05/30 15:55:07;;;;;;;13.77;4.40;;;16.20;99.90;;;;;;4847902;29;20489;-83
2021/05/30 15:58:39;;;;;;;11.82;2.67;;;16.70;99.90;;;;;;4807499;29;20055;-81
2021/05/30 16:01:45;;;;;;;14.57;2.42;;;16.20;99.90;;;;;;4760346;30;20151;-80
2021/05/30 16:04:51;;;;;;;12.73;3.25;;;16.10;99.90;;;;;;4676056;30;20088;-81
2021/05/30 16:08:14;;;;;;;12.85;2.78;;;16.00;99.90;;;;;;4726142;30;20051;-81
2021/05/30 16:12:04;;;;;;;8.95;2.65;;;16.00;99.90;;;;;;4755208;30;20067;-81
2021/05/30 16:15:28;;;;;;;11.45;2.80;;;16.20;99.90;;;;;;4763265;29;20461;-81
2021/05/30 16:18:31;;;;;;;7.35;2.97;;;16.20;99.90;;;;;;4674323;30;20049;-82
2021/05/30 16:21:45;;;;;;;11.98;2.90;;;15.90;99.90;;;;;;4686163;30;20057;-81
2021/05/30 16:28:47;;;;;;;8.75;3.10;;;16.00;99.90;;;;;;4748475;30;20662;-81
2021/05/30 16:34:35;;;;;;;11.00;3.55;;;16.10;99.90;;;;;;4695770;30;20143;-80
2021/05/30 16:44:36;;;;;;;14.48;3.45;;;17.50;99.90;;;;;;4912416;29;20043;-81
2021/05/30 16:48:11;;;;;;;12.48;3.80;;;17.20;99.90;;;;;;4890487;29;20052;-80
2021/05/30 16:54:44;;;;;;;12.75;3.75;;;16.70;99.90;;;;;;4967027;28;20246;-80
2021/05/30 17:02:19;;;;;;;13.30;3.42;;;17.50;99.90;;;;;;4821316;29;20480;-81
2021/05/30 17:05:35;;;;;;;15.05;3.97;;;17.40;99.90;;;;;;4833583;29;20053;-82
2021/05/30 17:08:40;;;;;;;11.73;3.45;;;16.90;99.90;;;;;;4818601;29;20149;-82
2021/05/30 17:12:25;;;;;;;14.20;4.53;;;16.50;99.90;;;;;;4820757;29;20492;-80
2021/05/30 17:18:45;;;;;;;;;;;16.30;99.90;;;;;;4885167;29;20103;-80
2021/05/30 17:22:05;;;;;;;8.30;3.65;;;16.40;99.90;;;;;;4907406;29;20032;-81
2021/05/30 17:29:07;;;;;;;10.90;3.97;;;17.60;99.90;;;;;;4858407;29;20048;-81
2021/05/30 17:32:33;;;;;;;13.57;3.70;;;17.40;99.90;;;;;;4800774;29;20124;-81
2021/05/30 17:36:00;;;;;;;16.88;3.78;;;17.30;99.90;;;;;;4743834;30;20060;-81
2021/05/30 17:39:39;;;;;;;9.23;3.80;;;17.30;99.90;;;;;;4743953;30;20121;-82
2021/05/30 17:43:12;;;;;;;18.30;4.55;;;17.00;99.90;;;;;;4737829;30;20060;-82